Hemby Bridge, North Carolina
Current Conditions -  °F | °C
As of 1:53 AM on Saturday 29 Nov 2014 (Local Time) from KEQY Reporting Station
Clear Clear  
Wind Chill: 33°   Ceiling: Unl
Heat Index: 33°   Visibility: 10mi
Dew Point: 24°   Wind: 3mph
Humidity: 70%   Direction: 240°WSW
Pressure: 30.27"   Gusts: NA
Location:  35.0963°N, 80.6145°W
Report Text: KEQY 290653Z AUTO 24003KT 10SM CLR 01/M04 A3027 RMK AO2 SLP270 T00061044
Loading
Personal Weather Stations






























Interactive Weather Map New forecast layout! Learn more

10-Day Weather Forecast

Advertisements
Track Severe Weather on mobile